Time;durP1;ratioP1;P1;durP2;ratioP2;P2;SDS_P1;SDS_P2;PMS_P1;PMS_P2;Temp;Humidity;BMP_temperature;BMP_pressure;BME280_temperature;BME280_humidity;BME280_pressure;Samples;Min_cycle;Max_cycle;Signal;HPM_P1;HPM_P2
2023/12/30 00:01:50;;;;;;;1.60;1.30;;;7.80;99.90;;;;;;5001338;28;20049;-82
2023/12/30 00:04:15;;;;;;;1.63;1.20;;;7.70;99.90;;;;;;5002891;28;20029;-82
2023/12/30 00:06:41;;;;;;;1.90;1.27;;;7.80;99.90;;;;;;5000186;28;20030;-81
2023/12/30 00:09:06;;;;;;;2.73;1.50;;;7.80;99.90;;;;;;5002866;28;20026;-82
2023/12/30 00:11:32;;;;;;;2.03;1.43;;;7.80;99.90;;;;;;5004177;28;20022;-82
2023/12/30 00:13:57;;;;;;;2.83;1.50;;;7.90;99.90;;;;;;5004575;28;20062;-82
2023/12/30 00:16:25;;;;;;;1.70;1.30;;;7.90;99.90;;;;;;4987503;28;20038;-82
2023/12/30 00:18:50;;;;;;;1.50;1.30;;;7.80;99.90;;;;;;5003591;28;20049;-82
2023/12/30 00:21:20;;;;;;;1.63;1.20;;;7.90;99.90;;;;;;5004237;28;20038;-83
2023/12/30 00:23:46;;;;;;;3.40;1.37;;;7.80;99.90;;;;;;4986858;28;20036;-82
2023/12/30 00:26:25;;;;;;;1.70;1.23;;;7.80;99.90;;;;;;5006023;28;20093;-82
2023/12/30 00:28:52;;;;;;;2.30;1.30;;;7.90;99.90;;;;;;5005256;28;20724;-82
2023/12/30 00:31:21;;;;;;;2.17;1.30;;;7.90;99.90;;;;;;5006667;28;20026;-82
2023/12/30 00:33:48;;;;;;;1.70;1.20;;;7.90;99.90;;;;;;5006496;28;20073;-82
2023/12/30 00:36:13;;;;;;;1.83;1.37;;;7.80;99.90;;;;;;5005884;28;20034;-82
2023/12/30 00:38:39;;;;;;;1.97;1.40;;;7.80;99.90;;;;;;5005154;28;20026;-82
2023/12/30 00:41:05;;;;;;;2.07;1.23;;;7.80;99.90;;;;;;5004715;28;20116;-82
2023/12/30 00:43:32;;;;;;;1.50;1.10;;;7.70;99.90;;;;;;4988242;28;20037;-82
2023/12/30 00:45:57;;;;;;;1.27;1.07;;;7.70;99.90;;;;;;4985946;28;20077;-82
2023/12/30 00:48:23;;;;;;;1.70;1.20;;;7.70;99.90;;;;;;5003516;28;20481;-83
2023/12/30 00:50:48;;;;;;;3.73;1.23;;;7.80;99.90;;;;;;5004173;28;20037;-81
2023/12/30 00:53:14;;;;;;;2.23;1.27;;;7.80;99.90;;;;;;5005537;28;20038;-82
2023/12/30 00:55:40;;;;;;;3.80;1.30;;;7.70;99.90;;;;;;5003768;28;20037;-82
2023/12/30 00:58:05;;;;;;;1.07;0.97;;;7.70;99.90;;;;;;5003472;28;20030;-82
2023/12/30 01:00:31;;;;;;;1.93;1.40;;;7.70;99.90;;;;;;5003939;28;20034;-82
2023/12/30 01:02:56;;;;;;;4.67;1.80;;;7.70;99.90;;;;;;5005031;28;20125;-82
2023/12/30 01:05:22;;;;;;;1.70;1.20;;;7.70;99.90;;;;;;5004298;28;20049;-81
2023/12/30 01:07:47;;;;;;;4.10;1.50;;;7.70;99.90;;;;;;5004708;28;20034;-82
2023/12/30 01:10:16;;;;;;;2.40;1.20;;;7.70;99.90;;;;;;4987587;28;20030;-82
2023/12/30 01:12:41;;;;;;;2.70;1.20;;;7.70;99.90;;;;;;5005140;28;20049;-81
2023/12/30 01:15:08;;;;;;;8.10;1.60;;;7.70;99.90;;;;;;4988739;28;20666;-82
2023/12/30 01:17:33;;;;;;;2.10;1.40;;;7.80;99.90;;;;;;4986127;28;20030;-80
2023/12/30 01:19:59;;;;;;;2.23;1.30;;;7.80;99.90;;;;;;5005787;28;20105;-81
2023/12/30 01:22:24;;;;;;;3.30;1.40;;;7.70;99.90;;;;;;5005969;28;20042;-81
2023/12/30 01:24:50;;;;;;;1.73;1.20;;;7.70;99.90;;;;;;5005078;28;20045;-81
2023/12/30 01:27:15;;;;;;;3.20;1.50;;;7.70;99.90;;;;;;5003687;28;20035;-82
2023/12/30 01:29:41;;;;;;;2.03;1.00;;;7.70;99.90;;;;;;5006182;28;20037;-81
2023/12/30 01:32:06;;;;;;;2.10;1.43;;;7.70;99.90;;;;;;4993018;28;20361;-82
2023/12/30 01:34:32;;;;;;;1.80;1.30;;;7.60;99.90;;;;;;5011801;28;20061;-81
2023/12/30 01:36:58;;;;;;;2.13;1.40;;;7.60;99.90;;;;;;5009708;28;20026;-81
2023/12/30 01:39:23;;;;;;;2.13;1.33;;;7.60;99.90;;;;;;5004523;28;20049;-82
2023/12/30 01:41:51;;;;;;;2.97;1.90;;;7.60;99.90;;;;;;5005209;28;20037;-81
2023/12/30 01:44:17;;;;;;;1.87;1.43;;;7.60;99.90;;;;;;5006413;28;20025;-81
2023/12/30 01:46:43;;;;;;;2.50;1.60;;;7.70;99.90;;;;;;5005763;28;20053;-81
2023/12/30 01:49:09;;;;;;;1.90;1.50;;;7.80;99.90;;;;;;5005382;28;20039;-81
2023/12/30 01:51:34;;;;;;;3.40;1.90;;;7.90;99.90;;;;;;5006928;28;20032;-81
2023/12/30 01:54:01;;;;;;;3.03;1.70;;;7.90;99.90;;;;;;5006539;28;20042;-81
2023/12/30 01:56:27;;;;;;;2.63;1.90;;;8.00;99.90;;;;;;5006302;28;20058;-81
2023/12/30 01:58:53;;;;;;;2.97;1.50;;;8.00;99.90;;;;;;5006099;28;20030;-81
2023/12/30 02:01:21;;;;;;;2.00;1.50;;;8.00;99.90;;;;;;5004784;28;20041;-81
2023/12/30 02:03:47;;;;;;;2.20;1.60;;;7.90;99.90;;;;;;5002404;28;20018;-81
2023/12/30 02:06:13;;;;;;;2.40;1.70;;;8.00;99.90;;;;;;5003394;28;21077;-81
2023/12/30 02:08:39;;;;;;;2.43;1.70;;;8.00;99.90;;;;;;5002335;28;20026;-82
2023/12/30 02:11:04;;;;;;;3.67;2.00;;;8.00;99.90;;;;;;5002147;28;20026;-81
2023/12/30 02:13:30;;;;;;;4.83;1.87;;;8.10;99.90;;;;;;4986311;28;20038;-82
2023/12/30 02:15:55;;;;;;;2.40;1.60;;;8.00;99.90;;;;;;5002270;28;20037;-81
2023/12/30 02:18:21;;;;;;;2.20;1.33;;;8.00;99.90;;;;;;5002025;28;20065;-82
2023/12/30 02:20:46;;;;;;;1.90;1.57;;;7.90;99.90;;;;;;5003378;28;20030;-82
2023/12/30 02:23:12;;;;;;;3.30;2.10;;;7.90;99.90;;;;;;5002244;28;20140;-81
2023/12/30 02:25:37;;;;;;;3.07;1.90;;;7.80;99.90;;;;;;5003556;28;20044;-82
2023/12/30 02:28:03;;;;;;;2.80;1.90;;;7.80;99.90;;;;;;5002004;28;20026;-82
2023/12/30 02:30:29;;;;;;;2.73;1.60;;;7.80;99.90;;;;;;5001338;28;20038;-81
2023/12/30 02:32:57;;;;;;;2.90;1.63;;;7.80;99.90;;;;;;5003925;28;20128;-81
2023/12/30 02:35:23;;;;;;;4.83;1.87;;;7.80;99.90;;;;;;5002787;28;20501;-81
2023/12/30 02:37:49;;;;;;;4.30;2.03;;;7.80;99.90;;;;;;5002317;28;20030;-82
2023/12/30 02:40:14;;;;;;;3.10;1.97;;;7.80;99.90;;;;;;5003274;28;20241;-80
2023/12/30 02:42:40;;;;;;;3.60;2.13;;;8.00;99.90;;;;;;5001472;28;20046;-82
2023/12/30 02:45:06;;;;;;;3.77;2.17;;;8.10;99.90;;;;;;5002819;28;20057;-82
2023/12/30 02:47:32;;;;;;;4.00;2.30;;;8.00;99.90;;;;;;5000820;28;20038;-81
2023/12/30 02:49:58;;;;;;;4.13;2.13;;;8.00;99.90;;;;;;5003818;28;20034;-81
2023/12/30 02:52:23;;;;;;;3.47;1.83;;;7.90;99.90;;;;;;5002881;28;20026;-82
2023/12/30 02:54:49;;;;;;;2.70;1.83;;;7.90;99.90;;;;;;5002070;28;20120;-82
2023/12/30 02:57:14;;;;;;;4.90;1.93;;;7.80;99.90;;;;;;5000859;28;20038;-81
2023/12/30 02:59:40;;;;;;;2.23;1.80;;;7.80;99.90;;;;;;5001481;28;20026;-82
2023/12/30 03:02:06;;;;;;;3.13;1.93;;;7.80;99.90;;;;;;5003482;28;20030;-81
2023/12/30 03:04:31;;;;;;;4.73;2.10;;;7.80;99.90;;;;;;5001360;28;20615;-81
2023/12/30 03:06:57;;;;;;;4.37;2.00;;;7.80;99.90;;;;;;5000827;28;20026;-81
2023/12/30 03:09:22;;;;;;;2.73;1.90;;;7.80;99.90;;;;;;5002112;28;20104;-81
2023/12/30 03:11:48;;;;;;;2.60;1.60;;;7.70;99.90;;;;;;5002183;28;20034;-81
2023/12/30 03:14:13;;;;;;;3.97;1.97;;;7.60;99.90;;;;;;5001521;28;20041;-81
2023/12/30 03:16:39;;;;;;;2.80;1.87;;;7.60;99.90;;;;;;4983582;28;20038;-82
2023/12/30 03:19:04;;;;;;;3.30;2.23;;;7.60;99.90;;;;;;5000421;28;20041;-82
2023/12/30 03:21:30;;;;;;;2.90;1.83;;;7.60;99.90;;;;;;5001616;28;20123;-81
2023/12/30 03:23:55;;;;;;;3.37;2.33;;;7.60;99.90;;;;;;5002019;28;20030;-81
2023/12/30 03:26:21;;;;;;;3.13;2.10;;;7.60;99.90;;;;;;5001355;28;20036;-81
2023/12/30 03:28:46;;;;;;;4.20;1.90;;;7.50;99.90;;;;;;5001601;28;20036;-81
2023/12/30 03:31:22;;;;;;;2.77;2.00;;;7.50;99.90;;;;;;5000579;28;20161;-82
2023/12/30 03:33:48;;;;;;;2.80;1.63;;;7.50;99.90;;;;;;5001428;28;20070;-82
2023/12/30 03:36:14;;;;;;;3.57;1.70;;;7.50;99.90;;;;;;5003321;28;20022;-81
2023/12/30 03:38:39;;;;;;;4.10;2.10;;;7.60;99.90;;;;;;5001320;28;20415;-81
2023/12/30 03:41:05;;;;;;;4.20;2.10;;;7.60;99.90;;;;;;5001736;28;20038;-81
2023/12/30 03:43:30;;;;;;;3.57;2.00;;;7.70;99.90;;;;;;5001932;28;20022;-81
2023/12/30 03:45:55;;;;;;;2.67;2.00;;;7.70;99.90;;;;;;5006655;28;20038;-81
2023/12/30 03:48:21;;;;;;;5.60;2.10;;;7.70;99.90;;;;;;4992260;28;20044;-80
2023/12/30 03:50:47;;;;;;;3.83;2.23;;;7.60;99.90;;;;;;5009572;28;20053;-81
2023/12/30 03:53:12;;;;;;;2.93;1.90;;;7.60;99.90;;;;;;5009356;28;20032;-81
2023/12/30 03:55:38;;;;;;;4.43;2.07;;;7.60;99.90;;;;;;5008474;28;20031;-81
2023/12/30 03:58:03;;;;;;;2.40;1.83;;;7.50;99.90;;;;;;5006160;28;20030;-81
2023/12/30 04:00:29;;;;;;;4.30;2.43;;;7.60;99.90;;;;;;5006766;28;20033;-81
2023/12/30 04:02:54;;;;;;;3.27;1.80;;;7.50;99.90;;;;;;5007012;28;20475;-80
2023/12/30 04:05:20;;;;;;;3.70;2.13;;;7.50;99.90;;;;;;5007453;28;20036;-82
2023/12/30 04:07:46;;;;;;;3.27;2.10;;;7.40;99.90;;;;;;5006070;28;20088;-82
2023/12/30 04:10:13;;;;;;;5.40;1.97;;;7.50;99.90;;;;;;5006930;28;20036;-81
2023/12/30 04:12:39;;;;;;;3.27;1.90;;;7.50;99.90;;;;;;5009580;28;20081;-82
2023/12/30 04:15:07;;;;;;;2.23;1.70;;;7.50;99.90;;;;;;4989310;28;20030;-81
2023/12/30 04:17:32;;;;;;;5.37;2.10;;;7.50;99.90;;;;;;5009250;28;20040;-81
2023/12/30 04:19:58;;;;;;;3.03;1.80;;;7.50;99.90;;;;;;4991685;28;20070;-81
2023/12/30 04:22:28;;;;;;;2.57;1.87;;;7.40;99.90;;;;;;5006883;28;20065;-82
2023/12/30 04:24:54;;;;;;;3.23;1.63;;;7.40;99.90;;;;;;5006187;28;20038;-81
2023/12/30 04:27:20;;;;;;;2.93;1.60;;;7.50;99.90;;;;;;5003789;28;20032;-81
2023/12/30 04:29:45;;;;;;;2.90;1.80;;;7.50;99.90;;;;;;5005268;28;20030;-82
2023/12/30 04:32:11;;;;;;;2.90;1.67;;;7.50;99.90;;;;;;5005543;28;20792;-81
2023/12/30 04:34:37;;;;;;;2.47;1.50;;;7.50;99.90;;;;;;5006290;28;20025;-82
2023/12/30 04:37:02;;;;;;;3.20;1.70;;;7.50;99.90;;;;;;4986902;28;20093;-81
2023/12/30 04:39:28;;;;;;;2.23;1.50;;;7.50;99.90;;;;;;5006121;28;20038;-81
2023/12/30 04:41:54;;;;;;;3.60;1.77;;;7.50;99.90;;;;;;5004480;28;20034;-81
2023/12/30 04:44:19;;;;;;;3.13;1.50;;;7.50;99.90;;;;;;5004626;28;20022;-81
2023/12/30 04:46:45;;;;;;;3.07;1.60;;;7.50;99.90;;;;;;5004010;28;20035;-81
2023/12/30 04:49:11;;;;;;;2.40;1.67;;;7.50;99.90;;;;;;5005811;28;20038;-82
2023/12/30 04:51:37;;;;;;;2.30;1.70;;;7.60;99.90;;;;;;5004695;28;20595;-81
2023/12/30 04:54:03;;;;;;;2.93;1.37;;;7.60;99.90;;;;;;5006020;28;20022;-81
2023/12/30 04:56:29;;;;;;;3.00;1.47;;;7.70;99.90;;;;;;5004212;28;20030;-81
2023/12/30 04:58:54;;;;;;;3.97;1.50;;;7.80;99.90;;;;;;5003937;28;20065;-81
2023/12/30 05:01:20;;;;;;;4.10;1.40;;;7.80;99.90;;;;;;5006556;28;20111;-82
2023/12/30 05:03:45;;;;;;;2.43;1.47;;;7.80;99.90;;;;;;5004530;28;20033;-81
2023/12/30 05:06:21;;;;;;;2.37;1.47;;;7.80;99.90;;;;;;5004827;28;20081;-80
2023/12/30 05:08:47;;;;;;;;;;;7.90;99.90;;;;;;4988586;28;20172;-81
2023/12/30 05:11:13;;;;;;;3.17;1.30;;;7.80;99.90;;;;;;5005262;28;19924;-81
2023/12/30 05:13:38;;;;;;;5.50;1.50;;;7.90;99.90;;;;;;5006395;28;20046;-81
2023/12/30 05:16:04;;;;;;;2.93;1.40;;;7.80;99.90;;;;;;5006139;28;20045;-81
2023/12/30 05:18:30;;;;;;;2.00;1.20;;;7.90;99.90;;;;;;5005821;28;20057;-80
2023/12/30 05:20:55;;;;;;;1.90;1.10;;;7.90;99.90;;;;;;4990339;28;20045;-81
2023/12/30 05:23:21;;;;;;;2.17;1.30;;;8.00;99.90;;;;;;5010200;28;20038;-82
2023/12/30 05:25:47;;;;;;;3.20;1.10;;;8.00;99.90;;;;;;5011917;28;20021;-80
2023/12/30 05:28:13;;;;;;;1.63;1.20;;;8.00;99.90;;;;;;5010672;28;20022;-84
2023/12/30 05:30:40;;;;;;;2.93;1.27;;;8.00;99.90;;;;;;5003434;28;20417;-81
2023/12/30 05:33:06;;;;;;;1.83;1.27;;;8.00;99.90;;;;;;5004167;28;20092;-81
2023/12/30 05:35:32;;;;;;;4.10;1.40;;;8.00;99.90;;;;;;5004904;28;20030;-81
2023/12/30 05:37:58;;;;;;;2.20;1.20;;;8.10;99.90;;;;;;5004472;28;20025;-80
2023/12/30 05:40:24;;;;;;;2.43;1.30;;;8.10;99.90;;;;;;5003982;28;20034;-81
2023/12/30 05:42:49;;;;;;;1.70;1.40;;;8.10;99.90;;;;;;4986949;28;20614;-81
2023/12/30 05:45:15;;;;;;;3.13;1.60;;;8.10;99.90;;;;;;5003651;28;20018;-80
2023/12/30 05:47:41;;;;;;;2.33;1.50;;;8.10;99.90;;;;;;5003911;28;20065;-80
2023/12/30 05:50:07;;;;;;;3.03;1.43;;;8.10;99.90;;;;;;5001988;28;20030;-80
2023/12/30 05:52:32;;;;;;;2.97;1.70;;;8.10;99.90;;;;;;5001845;28;20030;-81
2023/12/30 05:54:58;;;;;;;2.33;1.40;;;8.10;99.90;;;;;;5004882;28;21156;-81
2023/12/30 05:57:24;;;;;;;2.33;1.10;;;8.10;99.90;;;;;;5003400;28;20037;-81
2023/12/30 05:59:49;;;;;;;3.93;1.50;;;8.10;99.90;;;;;;5005363;28;20042;-81
2023/12/30 06:02:15;;;;;;;3.17;1.67;;;8.10;99.90;;;;;;5004114;28;20041;-81
2023/12/30 06:04:41;;;;;;;2.70;1.60;;;8.00;99.90;;;;;;5004425;28;20034;-81
2023/12/30 06:07:07;;;;;;;2.80;1.70;;;8.00;99.90;;;;;;5004621;28;20212;-80
2023/12/30 06:09:33;;;;;;;6.83;1.93;;;8.00;99.90;;;;;;5004990;28;20060;-81
2023/12/30 06:11:58;;;;;;;3.77;1.83;;;8.10;99.90;;;;;;5004887;28;20548;-82
2023/12/30 06:14:24;;;;;;;3.73;1.53;;;8.10;99.90;;;;;;5005208;28;20053;-81
2023/12/30 06:16:49;;;;;;;3.77;1.60;;;8.10;99.90;;;;;;5005461;28;20097;-81
2023/12/30 06:19:16;;;;;;;2.50;1.50;;;8.00;99.90;;;;;;5005013;28;20105;-81
2023/12/30 06:21:42;;;;;;;3.73;1.73;;;8.00;99.90;;;;;;5005048;28;20060;-80
2023/12/30 06:24:08;;;;;;;3.33;1.90;;;7.90;99.90;;;;;;5004389;28;20030;-81
2023/12/30 06:26:38;;;;;;;4.17;1.90;;;7.90;99.90;;;;;;5001677;28;20035;-82
2023/12/30 06:29:04;;;;;;;3.17;2.00;;;7.80;99.90;;;;;;5003572;28;20042;-81
2023/12/30 06:31:29;;;;;;;6.33;2.13;;;7.80;99.90;;;;;;5004814;28;20065;-81
2023/12/30 06:33:55;;;;;;;4.07;2.40;;;7.70;99.90;;;;;;5004309;28;20038;-81
2023/12/30 06:36:22;;;;;;;5.63;2.43;;;7.70;99.90;;;;;;4989333;28;20048;-81
2023/12/30 06:38:48;;;;;;;4.80;2.60;;;7.60;99.90;;;;;;5001394;28;20061;-82
2023/12/30 06:41:14;;;;;;;5.43;2.43;;;7.60;99.90;;;;;;5003921;28;20026;-81
2023/12/30 06:43:40;;;;;;;5.00;2.57;;;7.50;99.90;;;;;;5002236;28;20029;-81
2023/12/30 06:46:05;;;;;;;4.07;2.50;;;7.50;99.90;;;;;;5002021;28;20045;-81
2023/12/30 06:48:31;;;;;;;5.60;2.90;;;7.50;99.90;;;;;;5002398;28;20396;-82
2023/12/30 06:50:57;;;;;;;5.57;3.00;;;7.50;99.90;;;;;;5003192;28;20048;-81
2023/12/30 06:53:22;;;;;;;4.43;2.80;;;7.50;99.90;;;;;;5000641;28;20112;-81
2023/12/30 06:55:48;;;;;;;4.77;2.90;;;7.50;99.90;;;;;;4983084;28;20169;-81
2023/12/30 06:58:13;;;;;;;4.93;2.40;;;7.40;99.90;;;;;;5000770;28;20023;-81
2023/12/30 07:00:39;;;;;;;4.00;2.80;;;7.40;99.90;;;;;;5002292;28;20104;-80
2023/12/30 07:03:05;;;;;;;5.03;2.80;;;7.40;99.90;;;;;;5001387;28;20038;-81
2023/12/30 07:05:35;;;;;;;4.80;2.70;;;7.40;99.90;;;;;;4999715;28;20098;-82
2023/12/30 07:08:01;;;;;;;5.17;2.97;;;7.30;99.90;;;;;;4981974;28;20031;-82
2023/12/30 07:10:27;;;;;;;4.93;3.27;;;7.20;99.90;;;;;;4999184;28;20038;-81
2023/12/30 07:12:52;;;;;;;3.80;3.10;;;7.20;99.90;;;;;;4999435;28;20030;-81
2023/12/30 07:15:18;;;;;;;4.23;2.53;;;7.10;99.90;;;;;;4997634;28;20057;-82
2023/12/30 07:17:49;;;;;;;5.07;3.00;;;7.00;99.90;;;;;;4991469;28;20034;-81
2023/12/30 07:20:18;;;;;;;4.77;3.13;;;7.00;99.90;;;;;;4987251;28;20034;-81
2023/12/30 07:22:43;;;;;;;7.23;3.10;;;6.90;99.90;;;;;;4986850;28;20061;-81
2023/12/30 07:25:09;;;;;;;5.57;3.07;;;6.80;99.90;;;;;;4998704;28;20030;-81
2023/12/30 07:27:35;;;;;;;17.20;3.37;;;6.80;99.90;;;;;;4997968;28;20037;-82
2023/12/30 07:30:00;;;;;;;9.13;3.43;;;6.70;99.90;;;;;;4997525;28;20026;-82
2023/12/30 07:32:26;;;;;;;29.87;5.63;;;6.70;99.90;;;;;;4998369;28;20030;-82
2023/12/30 07:34:51;;;;;;;11.33;3.60;;;6.70;99.90;;;;;;4998192;28;20045;-82
2023/12/30 07:37:17;;;;;;;11.60;4.00;;;6.60;99.90;;;;;;4996430;28;20040;-82
2023/12/30 07:39:43;;;;;;;5.77;3.20;;;6.60;99.90;;;;;;4998254;28;20025;-81
2023/12/30 07:42:08;;;;;;;6.47;3.57;;;6.60;99.90;;;;;;4996582;28;20073;-81
2023/12/30 07:44:37;;;;;;;4.83;3.50;;;6.50;99.90;;;;;;4980966;28;20088;-82
2023/12/30 07:47:03;;;;;;;7.13;3.67;;;6.50;99.90;;;;;;4980556;28;20049;-81
2023/12/30 07:49:29;;;;;;;5.10;3.60;;;6.50;99.90;;;;;;4995147;28;20118;-81
2023/12/30 07:51:55;;;;;;;4.70;3.73;;;6.50;99.90;;;;;;4997553;28;20038;-83
2023/12/30 07:54:21;;;;;;;6.93;3.30;;;6.50;99.90;;;;;;4982107;28;20026;-83
2023/12/30 07:56:46;;;;;;;6.83;3.53;;;6.50;99.90;;;;;;4996829;28;20734;-84
2023/12/30 07:59:12;;;;;;;4.23;3.10;;;6.40;99.90;;;;;;4992465;28;20404;-85
2023/12/30 08:01:43;;;;;;;6.10;3.40;;;6.40;99.90;;;;;;5000629;28;20070;-83
2023/12/30 08:04:08;;;;;;;5.00;3.00;;;6.40;99.90;;;;;;4995819;28;20031;-84
2023/12/30 08:06:34;;;;;;;5.80;3.10;;;6.40;99.90;;;;;;4995578;28;20041;-85
2023/12/30 08:08:59;;;;;;;3.87;2.90;;;6.40;99.90;;;;;;4993634;28;20034;-84
2023/12/30 08:11:26;;;;;;;9.97;2.97;;;6.40;99.90;;;;;;4995416;28;20038;-85
2023/12/30 08:13:51;;;;;;;4.17;2.80;;;6.50;99.90;;;;;;4952141;28;20038;-81
2023/12/30 08:16:17;;;;;;;4.10;2.67;;;6.50;99.90;;;;;;4974318;28;21518;-83
2023/12/30 08:18:42;;;;;;;3.40;2.50;;;6.60;99.90;;;;;;4976716;28;20041;-83
2023/12/30 08:21:08;;;;;;;5.00;2.60;;;6.70;99.90;;;;;;4992743;28;20034;-77
2023/12/30 08:23:33;;;;;;;4.57;2.60;;;6.80;99.90;;;;;;4984254;28;20030;-77
2023/12/30 08:25:59;;;;;;;3.73;2.50;;;6.80;99.90;;;;;;4986787;28;20041;-81
2023/12/30 08:28:24;;;;;;;3.47;2.30;;;6.90;99.90;;;;;;4987823;28;20105;-78
2023/12/30 08:30:53;;;;;;;3.20;1.97;;;6.90;99.90;;;;;;4988540;28;20022;-76
2023/12/30 08:33:19;;;;;;;4.50;2.50;;;7.00;99.90;;;;;;4997426;28;20046;-82
2023/12/30 08:35:45;;;;;;;5.03;2.23;;;7.10;99.90;;;;;;5004388;28;20057;-81
2023/12/30 08:38:10;;;;;;;3.10;2.23;;;7.20;99.90;;;;;;4985637;28;20038;-79
2023/12/30 08:40:36;;;;;;;4.00;2.00;;;7.20;99.90;;;;;;5002329;28;20073;-82
2023/12/30 08:43:02;;;;;;;4.50;2.10;;;7.20;99.90;;;;;;5002773;28;20034;-82
2023/12/30 08:45:28;;;;;;;4.63;2.10;;;7.40;99.90;;;;;;5003146;28;20497;-81
2023/12/30 08:47:53;;;;;;;4.47;2.30;;;7.40;99.90;;;;;;4998787;28;20049;-81
2023/12/30 08:50:19;;;;;;;4.73;1.93;;;7.50;99.90;;;;;;4985596;28;20034;-81
2023/12/30 08:52:44;;;;;;;3.47;2.10;;;7.60;99.90;;;;;;5007562;28;20033;-80
2023/12/30 08:55:11;;;;;;;3.80;1.70;;;7.60;99.90;;;;;;5003686;28;20025;-80
2023/12/30 08:57:37;;;;;;;3.53;2.03;;;7.70;99.90;;;;;;5003461;28;20040;-81
2023/12/30 09:00:08;;;;;;;4.17;2.40;;;7.70;99.90;;;;;;4987724;28;20041;-79
2023/12/30 09:02:46;;;;;;;3.67;2.50;;;7.70;99.90;;;;;;4999900;28;20065;-81
2023/12/30 09:05:15;;;;;;;3.00;1.80;;;7.80;99.90;;;;;;4998758;28;20113;-81
2023/12/30 09:07:41;;;;;;;3.30;1.60;;;7.90;99.90;;;;;;5000643;28;20026;-82
2023/12/30 09:10:07;;;;;;;3.67;1.50;;;8.00;99.90;;;;;;4985923;28;20038;-82
2023/12/30 09:12:33;;;;;;;3.20;1.70;;;8.00;99.90;;;;;;4999141;28;20030;-85
2023/12/30 09:14:58;;;;;;;3.00;1.70;;;8.10;99.90;;;;;;5001857;28;20032;-82
2023/12/30 09:17:24;;;;;;;2.40;1.40;;;8.10;99.90;;;;;;5003812;28;20037;-83
2023/12/30 09:19:49;;;;;;;3.37;1.63;;;8.20;99.90;;;;;;4998650;28;20038;-82
2023/12/30 09:22:16;;;;;;;3.10;1.60;;;8.30;99.90;;;;;;4998813;28;20049;-82
2023/12/30 09:24:41;;;;;;;3.70;1.40;;;8.40;99.90;;;;;;4998764;28;20084;-82
2023/12/30 09:27:08;;;;;;;2.47;1.50;;;8.50;99.90;;;;;;5001005;28;20054;-81
2023/12/30 09:29:33;;;;;;;3.57;1.50;;;8.50;99.90;;;;;;5001059;28;20026;-82
2023/12/30 09:31:59;;;;;;;1.77;1.17;;;8.60;99.90;;;;;;5002531;28;21125;-81
2023/12/30 09:34:24;;;;;;;2.33;1.43;;;8.60;99.90;;;;;;5001886;28;20041;-81
2023/12/30 09:36:50;;;;;;;1.90;1.30;;;8.70;99.90;;;;;;5001258;28;20046;-82
2023/12/30 09:39:16;;;;;;;2.40;1.43;;;8.80;99.90;;;;;;5001235;28;20030;-81
2023/12/30 09:41:41;;;;;;;2.93;1.60;;;8.80;99.90;;;;;;4998641;28;20140;-83
2023/12/30 09:44:08;;;;;;;2.23;1.40;;;8.90;99.90;;;;;;5000616;28;20657;-82
2023/12/30 09:46:37;;;;;;;1.83;1.20;;;9.10;99.90;;;;;;5001227;28;20053;-82
2023/12/30 09:49:03;;;;;;;3.60;1.50;;;9.10;99.90;;;;;;5003443;28;20040;-82
2023/12/30 09:51:32;;;;;;;2.40;1.60;;;9.20;99.90;;;;;;5000551;28;20035;-81
2023/12/30 09:53:58;;;;;;;1.93;1.30;;;9.20;99.90;;;;;;5001617;28;20259;-82
2023/12/30 09:56:25;;;;;;;2.63;1.37;;;9.30;99.90;;;;;;5000002;28;20034;-82
2023/12/30 09:58:53;;;;;;;2.07;1.20;;;9.40;99.90;;;;;;5000329;28;20038;-82
2023/12/30 10:01:20;;;;;;;2.83;1.40;;;9.40;99.90;;;;;;4999759;28;20066;-82
2023/12/30 10:03:45;;;;;;;2.93;1.60;;;9.50;99.90;;;;;;4997920;28;20113;-81
2023/12/30 10:06:14;;;;;;;3.43;1.43;;;9.60;99.90;;;;;;4998563;28;20057;-82
2023/12/30 10:08:42;;;;;;;2.90;1.27;;;9.60;99.90;;;;;;4997355;28;20042;-82
2023/12/30 10:11:09;;;;;;;1.73;1.30;;;9.60;99.90;;;;;;5000605;28;20093;-82
2023/12/30 10:13:39;;;;;;;2.90;1.37;;;9.70;99.90;;;;;;4998874;28;20236;-82
2023/12/30 10:16:06;;;;;;;3.40;1.30;;;9.80;99.90;;;;;;4999975;28;20030;-81
2023/12/30 10:18:32;;;;;;;2.67;1.17;;;10.10;99.90;;;;;;4999725;28;20038;-82
2023/12/30 10:20:58;;;;;;;2.17;1.20;;;10.20;99.90;;;;;;5000523;28;20035;-79
2023/12/30 10:23:26;;;;;;;1.93;1.10;;;10.30;99.90;;;;;;5001989;28;20041;-80
2023/12/30 10:25:52;;;;;;;2.43;1.23;;;10.30;99.90;;;;;;5002251;28;20040;-80
2023/12/30 10:28:18;;;;;;;2.63;1.10;;;10.30;99.90;;;;;;5003763;28;20101;-80
2023/12/30 10:30:43;;;;;;;1.97;1.03;;;10.40;99.90;;;;;;5003223;28;20044;-80
2023/12/30 10:33:14;;;;;;;1.70;1.00;;;10.30;99.90;;;;;;5002774;28;20037;-80
2023/12/30 10:35:44;;;;;;;1.90;1.10;;;10.30;99.90;;;;;;5003395;28;20036;-80
2023/12/30 10:38:13;;;;;;;3.87;1.60;;;10.30;99.90;;;;;;5001590;28;20183;-83
2023/12/30 10:40:39;;;;;;;3.40;1.00;;;10.30;99.90;;;;;;5004246;28;20113;-81
2023/12/30 10:43:05;;;;;;;1.73;1.07;;;10.30;99.90;;;;;;5002746;28;20548;-81
2023/12/30 10:45:31;;;;;;;2.10;1.10;;;10.30;99.90;;;;;;5002594;28;20030;-81
2023/12/30 10:47:59;;;;;;;2.00;1.10;;;10.30;99.90;;;;;;5002379;28;20133;-80
2023/12/30 10:50:26;;;;;;;2.80;1.33;;;10.40;99.90;;;;;;5002656;28;20061;-81
2023/12/30 10:53:03;;;;;;;2.57;1.10;;;10.50;99.90;;;;;;5001231;28;20022;-81
2023/12/30 10:55:33;;;;;;;1.90;1.03;;;10.50;99.90;;;;;;5002934;28;20031;-81
2023/12/30 10:58:03;;;;;;;2.43;1.30;;;10.50;99.90;;;;;;5001165;28;20042;-81
2023/12/30 11:00:35;;;;;;;1.40;0.90;;;10.60;99.90;;;;;;5002013;28;20037;-81
2023/12/30 11:03:02;;;;;;;1.40;1.00;;;10.70;99.90;;;;;;5002066;28;20061;-81
2023/12/30 11:05:35;;;;;;;2.57;1.27;;;10.70;99.90;;;;;;4999592;28;20120;-80
2023/12/30 11:08:03;;;;;;;3.93;1.20;;;10.70;99.90;;;;;;5001544;28;20038;-80
2023/12/30 11:10:29;;;;;;;2.27;1.23;;;10.70;99.90;;;;;;5003662;28;20060;-80
2023/12/30 11:12:54;;;;;;;1.70;1.10;;;10.80;99.90;;;;;;5002382;28;20110;-80
2023/12/30 11:15:28;;;;;;;1.60;1.10;;;10.90;99.90;;;;;;5005030;28;20030;-80
2023/12/30 11:17:56;;;;;;;2.70;0.90;;;10.90;99.90;;;;;;5004737;28;20050;-80
2023/12/30 11:20:23;;;;;;;1.57;0.80;;;11.00;99.90;;;;;;5000707;28;20034;-80
2023/12/30 11:22:49;;;;;;;3.53;0.80;;;11.00;99.90;;;;;;4983700;28;20053;-79
2023/12/30 11:25:14;;;;;;;1.20;0.97;;;11.00;99.90;;;;;;4981554;28;20043;-81
2023/12/30 11:27:40;;;;;;;2.57;0.87;;;10.90;99.90;;;;;;4997390;28;20105;-80
2023/12/30 11:30:15;;;;;;;2.33;1.00;;;10.80;99.90;;;;;;4999189;28;20058;-80
2023/12/30 11:32:41;;;;;;;1.30;0.97;;;10.70;99.90;;;;;;4998983;28;20045;-80
2023/12/30 11:35:07;;;;;;;1.57;0.80;;;10.70;99.90;;;;;;4998562;28;20048;-80
2023/12/30 11:37:35;;;;;;;3.67;1.90;;;10.70;99.90;;;;;;4997219;28;20097;-80
2023/12/30 11:40:02;;;;;;;1.45;0.90;;;10.80;99.90;;;;;;4999043;28;20026;-81
2023/12/30 11:42:28;;;;;;;1.80;0.90;;;10.80;99.90;;;;;;4981297;28;20036;-80
2023/12/30 11:44:54;;;;;;;2.50;0.90;;;10.90;99.90;;;;;;4999166;28;20490;-80
2023/12/30 11:47:22;;;;;;;1.40;1.10;;;10.90;99.90;;;;;;4999782;28;20034;-80
2023/12/30 11:49:48;;;;;;;2.37;0.80;;;10.80;99.90;;;;;;4999746;28;20061;-80
2023/12/30 11:52:13;;;;;;;1.70;1.00;;;10.90;99.90;;;;;;4998638;28;20093;-81
2023/12/30 11:54:39;;;;;;;2.60;1.00;;;11.00;99.90;;;;;;4999105;28;20061;-80
2023/12/30 11:57:09;;;;;;;3.63;1.10;;;11.00;99.90;;;;;;4998999;28;20045;-80
2023/12/30 11:59:35;;;;;;;1.97;1.20;;;11.10;99.90;;;;;;4998886;28;20097;-81
2023/12/30 12:02:08;;;;;;;2.50;1.20;;;11.20;99.90;;;;;;4999076;28;20062;-81
2023/12/30 12:04:34;;;;;;;3.87;1.00;;;11.30;99.90;;;;;;5001354;28;20081;-80
2023/12/30 12:06:59;;;;;;;2.13;0.98;;;11.40;99.90;;;;;;5001300;28;20030;-80
2023/12/30 12:09:25;;;;;;;3.20;1.10;;;11.50;99.90;;;;;;5002655;28;20049;-80
2023/12/30 12:11:50;;;;;;;1.00;0.90;;;11.50;99.90;;;;;;5001749;28;20041;-80
2023/12/30 12:14:16;;;;;;;1.03;0.80;;;11.50;99.90;;;;;;5000521;28;20188;-80
2023/12/30 12:16:41;;;;;;;2.28;1.00;;;11.40;99.90;;;;;;5000198;28;20104;-80
2023/12/30 12:19:07;;;;;;;1.90;0.90;;;11.50;99.90;;;;;;5000967;28;20125;-81
2023/12/30 12:21:32;;;;;;;2.42;1.00;;;11.50;99.90;;;;;;5001384;28;20041;-80
2023/12/30 12:23:58;;;;;;;1.95;0.90;;;11.50;99.90;;;;;;4982545;28;20622;-80
2023/12/30 12:26:24;;;;;;;2.30;0.93;;;11.50;99.90;;;;;;4998925;28;20046;-80
2023/12/30 12:28:53;;;;;;;2.90;1.20;;;11.60;99.90;;;;;;4989042;28;20756;-75
2023/12/30 12:31:18;;;;;;;1.90;0.80;;;11.50;99.90;;;;;;4987953;28;20494;-75
2023/12/30 12:33:44;;;;;;;2.30;0.88;;;11.50;99.90;;;;;;4995734;28;20034;-73
2023/12/30 12:36:10;;;;;;;3.47;0.98;;;11.50;99.90;;;;;;4987655;28;20030;-82
2023/12/30 12:38:35;;;;;;;3.05;0.98;;;11.40;99.90;;;;;;4990331;28;20026;-83
2023/12/30 12:41:01;;;;;;;1.40;1.00;;;11.40;99.90;;;;;;4993181;28;20022;-81
2023/12/30 12:43:26;;;;;;;1.50;1.00;;;11.40;99.90;;;;;;4993547;28;20042;-82
2023/12/30 12:45:52;;;;;;;1.98;0.90;;;11.40;99.90;;;;;;4990160;28;20032;-81
2023/12/30 12:48:18;;;;;;;1.85;0.90;;;11.30;99.90;;;;;;4990488;28;20034;-82
2023/12/30 12:50:44;;;;;;;1.40;0.90;;;11.40;99.90;;;;;;4993331;28;20026;-81